Sierra Nevada Aquatic Research Lab (SNARL) Reserve, Santa Monica Mtns, California Weather observations

Data are for 10 minute period ending at time listed.
 Day   Time   Solar   Ave.   Ave.  Ave.  Vector  Max.   Baro.   Total    
  of    of     Rad.   Air    Rel.  Wind   Wind   Wind  Press.  Precip.   
Year   Day            Temp.  Hum.  Speed  Dir.   Gust                    
2015   (PST)  Kw/m2    F      %     mph   deg.    mph    mb.     in.     
-------------------------------------------------------------------------
  64   12:30   0.83   53.0     7    7.6    85    12.8   790.5    0.00 
  64   12:40   0.82   53.3     7    4.3   117    10.7   790.4    0.00 
  64   12:50   0.82   54.0     7    5.2    89    10.4   790.3    0.00 
  64   13:00   0.81   54.5     7    6.2    81    12.2   790.3    0.00 
  64   13:10   0.80   54.4     8    5.3   110    13.9   790.3    0.00 
  64   13:20   0.80   55.0     8    7.7    93    14.2   790.2    0.00 
  64   13:30   0.77   54.9     9    6.4    85    12.9   790.1    0.00 
  64   13:40   0.75   54.0     9    8.1    99    13.4   790.1    0.00 
  64   13:50   0.73   54.9     9    8.0    96    16.8   790.1    0.00 
  64   14:00   0.71   55.4     8    8.8    91    14.0   790.0    0.00 
  64   14:10   0.69   55.0     8    8.2    86    14.4   790.0    0.00 
  64   14:20   0.67   55.2     8    7.7   100    15.2   790.0    0.00 
  64   14:30   0.65   55.3     8    6.1    81    10.7   790.0    0.00 
  64   14:40   0.62   55.5     7    5.7   111    12.1   790.0    0.00 
  64   14:50   0.59   55.1     8   10.2    94    16.9   789.9    0.00 
  64   15:00   0.56   54.6     8   11.7   100    16.7   790.0    0.00 
  64   15:10   0.53   54.3     8   12.4    96    17.9   789.9    0.00 
  64   15:20   0.50   53.8     8   10.8    91    14.7   789.9    0.00 
  64   15:30   0.47   53.8     9   11.9    94    16.7   789.9    0.00 
  64   15:40   0.43   53.3     9   11.9    96    16.1   790.0    0.00 
  64   15:50   0.40   53.3     9   11.4    96    16.3   790.0    0.00 
  64   16:00   0.37   53.2     9   11.5    93    16.4   790.0    0.00 
  64   16:10   0.33   52.6     9   12.1    90    17.3   790.0    0.00 
  64   16:20   0.29   52.0     9   11.9   105    15.5   790.0    0.00 
  64   16:30   0.26   51.4     9   11.9   105    17.1   790.0    0.00 
  64   16:40   0.22   50.8    10   11.5   108    15.2   790.0    0.00 
  64   16:50   0.19   50.3     9   10.8   110    15.8   790.0    0.00 
  64   17:00   0.15   49.5     9   11.1   107    15.1   790.0    0.00 
  64   17:10   0.12   48.4    10    9.9   104    13.5   790.0    0.00 
  64   17:20   0.02   45.8    12    6.9   109     9.0   790.1    0.00 
  64   17:30   0.01   42.7    13    7.3   129     8.8   790.1    0.00 
  64   17:40   0.01   42.0    13    7.5   138     8.8   790.3    0.00 
  64   17:50   0.00   41.0    15    3.6   133     7.8   790.5    0.00 
  64   18:00   0.00   38.6    17    1.5   266     4.7   790.6    0.00 
  64   18:10   0.00   35.7    20    2.2   261     5.3   790.8    0.00 
  64   18:20   0.00   36.5    19    2.5   178     5.5   790.9    0.00 
  64   18:30   0.00   36.0    20    2.8   191     5.8   791.0    0.00 
  64   18:40   0.00   33.9    23    3.6   226     5.8   791.2    0.00 
  64   18:50   0.00   31.6    26    2.4   256     3.9   791.3    0.00 
  64   19:00   0.00   30.1    29    1.5   279     3.7   791.3    0.00 
  64   19:10   0.00   28.7    33    1.2   326     3.7   791.4    0.00 
  64   19:20   0.00   27.7    34    1.0   327     3.7   791.4    0.00 
  64   19:30   0.00   26.9    34    1.9   240     4.1   791.5    0.00 
  64   19:40   0.00   26.6    35    0.7   324     2.0   791.5    0.00 
  64   19:50   0.00   25.4    39    0.9   337     4.1   791.6    0.00 
  64   20:00   0.00   23.3    40    2.2   126     3.5   791.8    0.00 
  64   20:10   0.00   23.1    42    0.4   303     1.8   791.8    0.00 
  64   20:20   0.00   21.1    44    0.9   152     2.9   792.0    0.00 
  64   20:30   0.00   21.8    44    1.7   235     4.4   792.1    0.00 
  64   20:40   0.00   23.3    44    1.8   324     3.6   792.2    0.00 
  64   20:50   0.00   22.5    45    3.3   306     5.8   792.2    0.00 
  64   21:00   0.00   23.4    43    2.6   295     4.5   792.3    0.00 
  64   21:10   0.00   23.4    42    2.6   273     5.6   792.4    0.00 
  64   21:20   0.00   22.9    43    1.4   280     3.0   792.5    0.00 
  64   21:30   0.00   22.2    46    3.2   314     7.1   792.6    0.00 
  64   21:40   0.00   21.9    46    3.4   313     5.2   792.6    0.00 
  64   21:50   0.00   20.1    48    1.3   301     4.2   792.6    0.00 
  64   22:00   0.00   19.3    51    0.8   343     2.6   792.6    0.00 
  64   22:10   0.00   19.6    50    0.6   109     1.4   792.6    0.00 
  64   22:20   0.00   19.7    50    2.3   115     3.1   792.6    0.00 
  64   22:30   0.00   20.0    49    1.7   184     2.8   792.6    0.00 
  64   22:40   0.00   21.4    46    2.1   256     3.9   792.6    0.00 
  64   22:50   0.00   20.6    51    0.7     4     2.1   792.6    0.00 
  64   23:00   0.00   18.9    50    0.5   191     1.8   792.7    0.00 
  64   23:10   0.00   18.8    54    0.0   109     0.4   792.6    0.00 
  64   23:20   0.00   18.3    54    0.7   252     1.8   792.5    0.00 
  64   23:30   0.00   17.6    54    0.3   268     1.2   792.5    0.00 
  64   23:40   0.00   16.6    56    1.1   172     2.1   792.4    0.00 
  64   23:50   0.00   16.8    56    0.6   197     1.7   792.3    0.00 
  65    0:00   0.00   17.1    55    0.6   348     2.1   792.3    0.00 
  65    0:10   0.00   17.0    56    1.2   318     3.7   792.3    0.00 
  65    0:20   0.00   15.7    58    1.0   284     3.3   792.3    0.00 
  65    0:30   0.00   18.0    55    2.7   287     4.3   792.3    0.00 
  65    0:40   0.00   16.1    56    1.9   296     3.1   792.2    0.00 
  65    0:50   0.00   15.2    59    1.3   259     2.5   792.2    0.00 
  65    1:00   0.00   16.5    57    0.1   277     1.2   792.1    0.00 
  65    1:10   0.00   14.9    62    1.1   112     2.9   792.3    0.00 
  65    1:20   0.00   15.0    63    1.3   141     2.4   792.4    0.00 
  65    1:30   0.00   16.6    60    1.6   181     2.3   792.4    0.00 
  65    1:40   0.00   15.7    62    1.3   216     3.0   792.4    0.00 
  65    1:50   0.00   15.5    63    1.2   224     2.0   792.3    0.00 
  65    2:00   0.00   14.8    62    0.7   241     1.9   792.2    0.00 
  65    2:10   0.00   13.9    62    0.3   261     1.6   792.1    0.00 
  65    2:20   0.00   13.0    67    0.5   128     1.8   792.1    0.00 
  65    2:30   0.00   14.3    67    1.7   156     2.3   792.0    0.00 
  65    2:40   0.00   14.1    65    1.0   223     1.7   791.8    0.00 
  65    2:50   0.00   13.7    65    0.4   269     1.5   791.8    0.00 
  65    3:00   0.00   14.1    63    0.7   151     1.8   791.7    0.00 
  65    3:10   0.00   13.3    65    1.4   218     3.8   791.7    0.00 
  65    3:20   0.00   14.0    66    0.3   238     1.7   791.6    0.00 
  65    3:30   0.00   13.0    66    0.4   221     1.2   791.6    0.00 
  65    3:40   0.00   13.6    68    1.0   313     3.4   791.5    0.00 
  65    3:50   0.00   12.8    67    0.3   291     1.4   791.4    0.00 
  65    4:00   0.00   13.4    65    0.6   332     2.5   791.5    0.00 
  65    4:10   0.00   11.9    69    0.8    97     2.2   791.5    0.00 
  65    4:20   0.00   11.2    72    1.1   248     2.6   791.4    0.00 
  65    4:30   0.00   12.0    72    2.1   277     3.1   791.4    0.00 
  65    4:40   0.00   11.4    72    0.5   307     2.9   791.5    0.00 
  65    4:50   0.00   11.8    70    0.7   231     2.2   791.5    0.00 
  65    5:00   0.00   11.0    70    1.1   231     3.3   791.5    0.00 
  65    5:10   0.00   11.7    68    0.7   287     2.9   791.6    0.00 
  65    5:20   0.00   11.4    72    1.1   308     3.3   791.6    0.00 
  65    5:30   0.00   10.2    73    0.8   120     2.0   791.6    0.00 
  65    5:40   0.00   10.2    73    1.8   204     3.9   791.6    0.00 
  65    5:50   0.00   10.6    71    1.0   164     1.5   791.6    0.00 
  65    6:00   0.00   10.6    74    1.1   325     3.1   791.7    0.00 
  65    6:10   0.00    9.8    74    0.6   236     1.5   791.7    0.00 
  65    6:20   0.00   10.5    71    1.6   254     2.8   791.7    0.00 
  65    6:30   0.00   10.6    75    1.3   302     2.2   791.7    0.00 
  65    6:40   0.02   10.8    73    0.1   294     1.6   791.7    0.00 
  65    6:50   0.05   12.8    71    1.5   338     3.9   791.8    0.00 
  65    7:00   0.08   14.8    69    1.2   229     2.3   791.9    0.00 
  65    7:10   0.12   18.9    62    1.0   238     2.3   792.0    0.00 
  65    7:20   0.15   23.8    53    0.3    85     1.1   792.1    0.00 
  65    7:30   0.18   25.8    51    1.5   336     3.0   792.2    0.00 
  65    7:40   0.21   26.4    53    1.5   346     2.7   792.5    0.00 
  65    7:50   0.26   30.1    45    0.3   102     1.4   792.7    0.00 
  65    8:00   0.30   33.1    41    0.4   113     1.5   792.7    0.00 
  65    8:10   0.33   35.4    38    0.3     4     1.5   792.6    0.00 
  65    8:20   0.37   36.2    38    2.2    15     4.2   792.8    0.00 
  65    8:30   0.40   36.6    35    0.8    27     3.1   792.9    0.00 
  65    8:40   0.44   37.3    36    3.0    56     5.3   793.0    0.00 
  65    8:50   0.47   36.6    37    3.3    53     5.5   793.0    0.00 
  65    9:00   0.50   37.2    36    2.8    64     4.7   793.0    0.00 
  65    9:10   0.53   38.4    35    2.5    55     4.7   792.9    0.00 
  65    9:20   0.56   40.2    34    3.1    60     5.6   792.8    0.00 
  65    9:30   0.59   41.4    32    3.8    58     5.7   792.7    0.00 
  65    9:40   0.62   41.8    30    4.3    49     6.4   792.7    0.00 
  65    9:50   0.64   42.8    30    4.5    48     7.1   792.6    0.00 
  65   10:00   0.67   44.7    28    3.8    48     6.1   792.5    0.00 
  65   10:10   0.69   45.7    24    3.8    48     6.1   792.4    0.00 
  65   10:20   0.71   47.4    20    3.1    36     4.7   792.3    0.00 
  65   10:30   0.73   49.3    18    3.1    28     5.0   792.2    0.00 
  65   10:40   0.74   50.5    17    4.1    68     7.1   792.0    0.00 
  65   10:50   0.76   50.9    17    4.7    88     8.3   792.0    0.00 
  65   11:00   0.78   52.5    15    4.1    56     7.7   791.9    0.00 
  65   11:10   0.79   52.8    14    3.8    99     8.5   791.8    0.00 
  65   11:20   0.80   53.3    13    2.9    49     6.9   791.8    0.00 
  65   11:30   0.81   53.8    13    4.6    83     9.6   791.7    0.00 
  65   11:40   0.82   54.1    12    2.9    54     8.2   791.7    0.00 
  65   11:50   0.82   53.9    13    5.6    52     9.3   791.6    0.00 
  65   12:00   0.83   53.3    12    3.1    68     7.5   791.6    0.00 
  65   12:10   0.83   55.6    11    3.8   134     7.5   791.4    0.00 
  65   12:20   0.83   55.6    10    3.4   156     8.3   791.3    0.00 

Return to SNARL Reserve graphs page.


Western Regional Climate Center,wrcc@dri.edu